NWK1611 YPKG-YPPH
Flight info
| Callsign | NWK1611 |
|---|---|
| Flight time | 0h 55m |
| Altitude | 32000 |
| Route | KG Q41 MALUP Q158 PH |
| Aircraft | A320/M-SDE3FGHIRWY/LB1 |
Departure
| Time | 2026-05-05 11:11 |
|---|---|
| Airport | Kalgoorlie Boulder Airport (YPKG) |
Arrival
| Time | 2026-05-05 12:06 |
|---|---|
| Airport | Perth International Airport (YPPH) |
| Time | Latitude | Longitude | Altitude | Speed | Heading |
|---|---|---|---|---|---|
| 2026-05-05 10:51 | -30.78593 | 121.45806 | 1212 ft | 0 kts | 54° |
| 2026-05-05 11:07 | -30.78592 | 121.45814 | 1212 ft | 3 kts | 81° |
| 2026-05-05 11:08 | -30.78610 | 121.45823 | 1212 ft | 4 kts | 189° |
| 2026-05-05 11:08 | -30.78645 | 121.45810 | 1212 ft | 7 kts | 200° |
| 2026-05-05 11:08 | -30.78696 | 121.45786 | 1212 ft | 9 kts | 202° |
| 2026-05-05 11:08 | -30.78764 | 121.45756 | 1212 ft | 12 kts | 199° |
| 2026-05-05 11:09 | -30.78845 | 121.45721 | 1213 ft | 11 kts | 200° |
| 2026-05-05 11:09 | -30.78890 | 121.45664 | 1214 ft | 11 kts | 272° |
| 2026-05-05 11:09 | -30.78862 | 121.45573 | 1214 ft | 13 kts | 290° |
| 2026-05-05 11:09 | -30.78857 | 121.45486 | 1214 ft | 9 kts | 280° |
| 2026-05-05 11:10 | -30.78837 | 121.45495 | 1214 ft | 6 kts | 110° |
| 2026-05-05 11:10 | -30.78839 | 121.45501 | 1214 ft | 0 kts | 109° |
| 2026-05-05 11:10 | -30.78865 | 121.45583 | 1214 ft | 42 kts | 110° |
| 2026-05-05 11:10 | -30.79058 | 121.46180 | 1213 ft | 112 kts | 110° |
| 2026-05-05 11:11 | -30.79385 | 121.47195 | 1421 ft | 142 kts | 110° |
| 2026-05-05 11:11 | -30.79712 | 121.48266 | 2056 ft | 140 kts | 109° |
| 2026-05-05 11:11 | -30.80040 | 121.49331 | 2727 ft | 139 kts | 111° |
| 2026-05-05 11:11 | -30.80596 | 121.50273 | 3123 ft | 153 kts | 144° |
| 2026-05-05 11:12 | -30.81689 | 121.50640 | 3384 ft | 180 kts | 181° |
| 2026-05-05 11:12 | -30.82891 | 121.49987 | 3634 ft | 211 kts | 225° |
| 2026-05-05 11:12 | -30.83767 | 121.48476 | 3971 ft | 238 kts | 238° |
| 2026-05-05 11:12 | -30.84601 | 121.46700 | 4468 ft | 261 kts | 241° |
| 2026-05-05 11:13 | -30.85450 | 121.44786 | 5321 ft | 269 kts | 242° |
| 2026-05-05 11:13 | -30.86310 | 121.42834 | 6243 ft | 273 kts | 241° |
| 2026-05-05 11:13 | -30.87192 | 121.40855 | 7138 ft | 277 kts | 241° |
| 2026-05-05 11:13 | -30.88098 | 121.38852 | 7999 ft | 281 kts | 240° |
| 2026-05-05 11:14 | -30.89023 | 121.36833 | 8869 ft | 285 kts | 239° |
| 2026-05-05 11:14 | -30.89967 | 121.34792 | 9733 ft | 288 kts | 239° |
| 2026-05-05 11:14 | -30.90935 | 121.32711 | 10370 ft | 301 kts | 239° |
| 2026-05-05 11:14 | -30.91973 | 121.30490 | 10672 ft | 322 kts | 239° |
| 2026-05-05 11:15 | -30.93059 | 121.28164 | 11247 ft | 331 kts | 239° |
| 2026-05-05 11:15 | -30.94162 | 121.25789 | 11967 ft | 335 kts | 239° |
| 2026-05-05 11:15 | -30.95272 | 121.23386 | 12698 ft | 339 kts | 240° |
| 2026-05-05 11:15 | -30.96394 | 121.20954 | 13432 ft | 342 kts | 240° |
| 2026-05-05 11:16 | -30.97511 | 121.18534 | 14149 ft | 346 kts | 240° |
| 2026-05-05 11:16 | -30.98658 | 121.16053 | 14803 ft | 349 kts | 240° |
| 2026-05-05 11:16 | -30.99813 | 121.13559 | 15467 ft | 351 kts | 240° |
| 2026-05-05 11:16 | -31.00975 | 121.11049 | 16121 ft | 353 kts | 240° |
| 2026-05-05 11:17 | -31.02140 | 121.08519 | 16791 ft | 355 kts | 240° |
| 2026-05-05 11:17 | -31.03315 | 121.05969 | 17453 ft | 357 kts | 240° |
| 2026-05-05 11:17 | -31.04493 | 121.03407 | 18126 ft | 360 kts | 240° |
| 2026-05-05 11:17 | -31.05678 | 121.00828 | 18772 ft | 362 kts | 240° |
| 2026-05-05 11:18 | -31.06875 | 120.98227 | 19370 ft | 364 kts | 240° |
| 2026-05-05 11:18 | -31.08077 | 120.95622 | 19989 ft | 366 kts | 240° |
| 2026-05-05 11:18 | -31.09288 | 120.92995 | 20611 ft | 368 kts | 240° |
| 2026-05-05 11:18 | -31.10504 | 120.90353 | 21231 ft | 370 kts | 240° |
| 2026-05-05 11:19 | -31.11722 | 120.87701 | 21825 ft | 372 kts | 240° |
| 2026-05-05 11:19 | -31.12951 | 120.85020 | 22414 ft | 374 kts | 240° |
| 2026-05-05 11:19 | -31.14178 | 120.82336 | 22999 ft | 376 kts | 240° |
| 2026-05-05 11:19 | -31.15414 | 120.79632 | 23588 ft | 378 kts | 240° |
| 2026-05-05 11:20 | -31.16638 | 120.76951 | 24120 ft | 380 kts | 240° |
| 2026-05-05 11:20 | -31.17884 | 120.74223 | 24590 ft | 382 kts | 240° |
| 2026-05-05 11:20 | -31.19142 | 120.71472 | 25051 ft | 385 kts | 240° |
| 2026-05-05 11:20 | -31.20406 | 120.68709 | 25492 ft | 387 kts | 241° |
| 2026-05-05 11:21 | -31.21681 | 120.65919 | 25945 ft | 389 kts | 241° |
| 2026-05-05 11:21 | -31.22958 | 120.63122 | 26380 ft | 392 kts | 241° |
| 2026-05-05 11:21 | -31.24242 | 120.60304 | 26815 ft | 394 kts | 241° |
| 2026-05-05 11:21 | -31.25532 | 120.57465 | 27234 ft | 396 kts | 241° |
| 2026-05-05 11:22 | -31.26825 | 120.54613 | 27636 ft | 398 kts | 241° |
| 2026-05-05 11:22 | -31.28127 | 120.51745 | 28035 ft | 401 kts | 241° |
| 2026-05-05 11:22 | -31.29439 | 120.48855 | 28432 ft | 403 kts | 241° |
| 2026-05-05 11:22 | -31.30756 | 120.45953 | 28830 ft | 405 kts | 242° |
| 2026-05-05 11:23 | -31.32024 | 120.42993 | 29224 ft | 408 kts | 244° |
| 2026-05-05 11:23 | -31.33213 | 120.39972 | 29616 ft | 410 kts | 245° |
| 2026-05-05 11:23 | -31.34357 | 120.36900 | 30008 ft | 413 kts | 246° |
| 2026-05-05 11:23 | -31.35486 | 120.33800 | 30395 ft | 415 kts | 246° |
| 2026-05-05 11:24 | -31.36625 | 120.30684 | 30726 ft | 417 kts | 246° |
| 2026-05-05 11:24 | -31.37778 | 120.27564 | 31054 ft | 419 kts | 246° |
| 2026-05-05 11:24 | -31.38951 | 120.24431 | 31382 ft | 421 kts | 246° |
| 2026-05-05 11:24 | -31.40120 | 120.21336 | 31692 ft | 422 kts | 246° |
| 2026-05-05 11:25 | -31.41310 | 120.18203 | 32111 ft | 421 kts | 246° |
| 2026-05-05 11:25 | -31.42506 | 120.15062 | 32330 ft | 421 kts | 246° |
| 2026-05-05 11:25 | -31.43694 | 120.11935 | 32386 ft | 422 kts | 246° |
| 2026-05-05 11:26 | -31.46083 | 120.05608 | 32375 ft | 426 kts | 246° |
| 2026-05-05 11:26 | -31.48480 | 119.99252 | 32372 ft | 426 kts | 246° |
| 2026-05-05 11:27 | -31.50858 | 119.92931 | 32373 ft | 426 kts | 246° |
| 2026-05-05 11:27 | -31.53249 | 119.86572 | 32373 ft | 426 kts | 246° |
| 2026-05-05 11:28 | -31.55642 | 119.80168 | 32376 ft | 426 kts | 246° |
| 2026-05-05 11:28 | -31.57996 | 119.73840 | 32376 ft | 426 kts | 246° |
| 2026-05-05 11:29 | -31.60367 | 119.67476 | 32377 ft | 426 kts | 246° |
| 2026-05-05 11:29 | -31.62741 | 119.61105 | 32378 ft | 426 kts | 246° |
| 2026-05-05 11:30 | -31.65105 | 119.54729 | 32383 ft | 426 kts | 246° |
| 2026-05-05 11:30 | -31.67467 | 119.48360 | 32384 ft | 426 kts | 246° |
| 2026-05-05 11:31 | -31.69839 | 119.41986 | 32380 ft | 426 kts | 246° |
| 2026-05-05 11:31 | -31.72196 | 119.35598 | 32379 ft | 426 kts | 246° |
| 2026-05-05 11:32 | -31.74546 | 119.29214 | 32386 ft | 426 kts | 246° |
| 2026-05-05 11:32 | -31.76900 | 119.22827 | 32378 ft | 426 kts | 246° |
| 2026-05-05 11:33 | -31.79246 | 119.16443 | 32377 ft | 426 kts | 246° |
| 2026-05-05 11:33 | -31.81596 | 119.10043 | 32375 ft | 426 kts | 246° |
| 2026-05-05 11:34 | -31.83941 | 119.03639 | 32378 ft | 426 kts | 246° |
| 2026-05-05 11:34 | -31.86281 | 118.97234 | 32383 ft | 426 kts | 247° |
| 2026-05-05 11:35 | -31.88614 | 118.90822 | 32389 ft | 426 kts | 247° |
| 2026-05-05 11:35 | -31.90942 | 118.84415 | 32383 ft | 426 kts | 247° |
| 2026-05-05 11:36 | -31.93256 | 118.78049 | 32383 ft | 425 kts | 247° |
| 2026-05-05 11:36 | -31.95591 | 118.71637 | 32383 ft | 425 kts | 247° |
| 2026-05-05 11:37 | -31.97912 | 118.65229 | 32382 ft | 425 kts | 247° |
| 2026-05-05 11:37 | -32.00225 | 118.58811 | 32374 ft | 425 kts | 247° |
| 2026-05-05 11:38 | -32.02148 | 118.53480 | 32382 ft | 425 kts | 247° |
| 2026-05-05 11:38 | -32.04459 | 118.47062 | 32378 ft | 425 kts | 247° |
| 2026-05-05 11:39 | -32.06767 | 118.40644 | 32384 ft | 426 kts | 247° |
| 2026-05-05 11:39 | -32.09166 | 118.34261 | 32379 ft | 426 kts | 245° |
| 2026-05-05 11:40 | -32.11723 | 118.27958 | 32382 ft | 426 kts | 244° |
| 2026-05-05 11:40 | -32.14293 | 118.21660 | 32379 ft | 426 kts | 245° |
| 2026-05-05 11:41 | -32.16820 | 118.15331 | 32395 ft | 426 kts | 245° |
| 2026-05-05 11:41 | -32.19322 | 118.09005 | 32398 ft | 425 kts | 245° |
| 2026-05-05 11:42 | -32.21791 | 118.02736 | 32371 ft | 410 kts | 245° |
| 2026-05-05 11:42 | -32.22970 | 117.99747 | 32371 ft | 396 kts | 245° |
| 2026-05-05 11:42 | -32.24129 | 117.96812 | 32378 ft | 392 kts | 245° |
| 2026-05-05 11:43 | -32.26414 | 117.91027 | 32071 ft | 380 kts | 245° |
| 2026-05-05 11:43 | -32.27519 | 117.88223 | 31655 ft | 373 kts | 245° |
| 2026-05-05 11:43 | -32.28611 | 117.85454 | 31248 ft | 371 kts | 245° |
| 2026-05-05 11:43 | -32.29696 | 117.82699 | 30864 ft | 368 kts | 245° |
| 2026-05-05 11:44 | -32.30773 | 117.79963 | 30474 ft | 366 kts | 244° |
| 2026-05-05 11:44 | -32.31844 | 117.77238 | 30055 ft | 362 kts | 244° |
| 2026-05-05 11:44 | -32.32900 | 117.74553 | 29686 ft | 359 kts | 245° |
| 2026-05-05 11:44 | -32.33945 | 117.71885 | 29324 ft | 356 kts | 245° |
| 2026-05-05 11:45 | -32.34948 | 117.69217 | 28938 ft | 354 kts | 250° |
| 2026-05-05 11:45 | -32.35550 | 117.66405 | 28567 ft | 353 kts | 261° |
| 2026-05-05 11:45 | -32.35631 | 117.63545 | 28194 ft | 353 kts | 272° |
| 2026-05-05 11:45 | -32.35204 | 117.60677 | 27803 ft | 353 kts | 283° |
| 2026-05-05 11:46 | -32.34533 | 117.57890 | 27413 ft | 351 kts | 283° |
| 2026-05-05 11:46 | -32.33870 | 117.55117 | 27022 ft | 350 kts | 283° |
| 2026-05-05 11:46 | -32.33211 | 117.52354 | 26633 ft | 348 kts | 283° |
| 2026-05-05 11:46 | -32.32556 | 117.49612 | 26228 ft | 346 kts | 283° |
| 2026-05-05 11:47 | -32.31899 | 117.46881 | 25826 ft | 345 kts | 283° |
| 2026-05-05 11:47 | -32.31240 | 117.44159 | 25423 ft | 343 kts | 283° |
| 2026-05-05 11:47 | -32.30583 | 117.41449 | 25013 ft | 343 kts | 283° |
| 2026-05-05 11:47 | -32.29929 | 117.38744 | 24587 ft | 342 kts | 283° |
| 2026-05-05 11:48 | -32.28622 | 117.33345 | 23712 ft | 341 kts | 283° |
| 2026-05-05 11:48 | -32.27972 | 117.30654 | 23276 ft | 339 kts | 283° |
| 2026-05-05 11:48 | -32.27328 | 117.27987 | 22860 ft | 337 kts | 283° |
| 2026-05-05 11:49 | -32.26687 | 117.25333 | 22444 ft | 335 kts | 283° |
| 2026-05-05 11:49 | -32.26048 | 117.22697 | 22030 ft | 333 kts | 284° |
| 2026-05-05 11:49 | -32.25409 | 117.20072 | 21623 ft | 331 kts | 284° |
| 2026-05-05 11:49 | -32.24775 | 117.17463 | 21213 ft | 330 kts | 284° |
| 2026-05-05 11:50 | -32.24142 | 117.14863 | 20801 ft | 329 kts | 284° |
| 2026-05-05 11:50 | -32.23511 | 117.12271 | 20396 ft | 328 kts | 284° |
| 2026-05-05 11:50 | -32.22880 | 117.09681 | 19985 ft | 327 kts | 284° |
| 2026-05-05 11:50 | -32.22257 | 117.07130 | 19587 ft | 327 kts | 284° |
| 2026-05-05 11:51 | -32.21624 | 117.04548 | 19185 ft | 327 kts | 284° |
| 2026-05-05 11:51 | -32.20992 | 117.01976 | 18791 ft | 327 kts | 284° |
| 2026-05-05 11:51 | -32.20357 | 116.99393 | 18343 ft | 327 kts | 284° |
| 2026-05-05 11:51 | -32.19727 | 116.96822 | 17920 ft | 325 kts | 284° |
| 2026-05-05 11:52 | -32.19101 | 116.94265 | 17529 ft | 324 kts | 284° |
| 2026-05-05 11:52 | -32.18467 | 116.91723 | 17137 ft | 323 kts | 287° |
| 2026-05-05 11:52 | -32.17530 | 116.89321 | 16747 ft | 324 kts | 300° |
| 2026-05-05 11:52 | -32.16199 | 116.87179 | 16358 ft | 324 kts | 306° |
| 2026-05-05 11:53 | -32.14807 | 116.85090 | 15968 ft | 323 kts | 306° |
| 2026-05-05 11:53 | -32.13418 | 116.83006 | 15580 ft | 322 kts | 306° |
| 2026-05-05 11:53 | -32.12037 | 116.80926 | 15194 ft | 322 kts | 306° |
| 2026-05-05 11:53 | -32.10655 | 116.78843 | 14794 ft | 322 kts | 306° |
| 2026-05-05 11:54 | -32.09274 | 116.76757 | 14420 ft | 322 kts | 306° |
| 2026-05-05 11:54 | -32.07894 | 116.74675 | 14015 ft | 322 kts | 307° |
| 2026-05-05 11:54 | -32.06515 | 116.72596 | 13608 ft | 319 kts | 307° |
| 2026-05-05 11:54 | -32.05158 | 116.70558 | 13221 ft | 312 kts | 307° |
| 2026-05-05 11:55 | -32.03823 | 116.68554 | 12847 ft | 309 kts | 307° |
| 2026-05-05 11:55 | -32.02524 | 116.66604 | 12487 ft | 303 kts | 307° |
| 2026-05-05 11:55 | -32.01230 | 116.64657 | 12125 ft | 302 kts | 307° |
| 2026-05-05 11:55 | -31.99938 | 116.62711 | 11763 ft | 301 kts | 307° |
| 2026-05-05 11:56 | -31.98644 | 116.60765 | 11393 ft | 301 kts | 307° |
| 2026-05-05 11:56 | -31.97351 | 116.58822 | 11033 ft | 301 kts | 307° |
| 2026-05-05 11:56 | -31.96055 | 116.56874 | 10580 ft | 304 kts | 307° |
| 2026-05-05 11:56 | -31.94751 | 116.54904 | 9962 ft | 302 kts | 304° |
| 2026-05-05 11:57 | -31.93651 | 116.52842 | 9559 ft | 293 kts | 300° |
| 2026-05-05 11:57 | -31.92611 | 116.50805 | 9210 ft | 290 kts | 300° |
| 2026-05-05 11:57 | -31.91577 | 116.48777 | 8867 ft | 289 kts | 300° |
| 2026-05-05 11:57 | -31.90545 | 116.46756 | 8506 ft | 288 kts | 300° |
| 2026-05-05 11:58 | -31.89521 | 116.44755 | 8303 ft | 280 kts | 300° |
| 2026-05-05 11:58 | -31.88511 | 116.42788 | 7869 ft | 282 kts | 300° |
| 2026-05-05 11:58 | -31.87493 | 116.40799 | 7488 ft | 285 kts | 300° |
| 2026-05-05 11:58 | -31.86470 | 116.38804 | 7135 ft | 284 kts | 300° |
| 2026-05-05 11:59 | -31.85468 | 116.36850 | 6740 ft | 280 kts | 301° |
| 2026-05-05 11:59 | -31.84474 | 116.34916 | 6429 ft | 267 kts | 301° |
| 2026-05-05 11:59 | -31.83527 | 116.33072 | 6003 ft | 260 kts | 301° |
| 2026-05-05 11:59 | -31.82615 | 116.31299 | 5603 ft | 253 kts | 302° |
| 2026-05-05 12:00 | -31.81717 | 116.29556 | 5217 ft | 246 kts | 302° |
| 2026-05-05 12:00 | -31.80841 | 116.27856 | 4808 ft | 240 kts | 301° |
| 2026-05-05 12:00 | -31.80211 | 116.26068 | 4405 ft | 236 kts | 281° |
| 2026-05-05 12:00 | -31.80136 | 116.24141 | 4018 ft | 237 kts | 261° |
| 2026-05-05 12:01 | -31.80611 | 116.22295 | 3616 ft | 238 kts | 240° |
| 2026-05-05 12:01 | -31.81461 | 116.20617 | 3185 ft | 239 kts | 236° |
| 2026-05-05 12:01 | -31.82307 | 116.18971 | 3013 ft | 228 kts | 236° |
| 2026-05-05 12:01 | -31.83100 | 116.17410 | 2948 ft | 217 kts | 237° |
| 2026-05-05 12:02 | -31.83849 | 116.15920 | 2881 ft | 208 kts | 236° |
| 2026-05-05 12:02 | -31.84579 | 116.14467 | 2794 ft | 205 kts | 236° |
| 2026-05-05 12:02 | -31.85293 | 116.13043 | 2741 ft | 196 kts | 236° |
| 2026-05-05 12:02 | -31.85960 | 116.11709 | 2623 ft | 182 kts | 236° |
| 2026-05-05 12:03 | -31.86588 | 116.10474 | 2418 ft | 172 kts | 234° |
| 2026-05-05 12:03 | -31.87192 | 116.09303 | 2204 ft | 162 kts | 234° |
| 2026-05-05 12:03 | -31.87756 | 116.08209 | 2049 ft | 153 kts | 234° |
| 2026-05-05 12:03 | -31.88297 | 116.07160 | 1854 ft | 152 kts | 233° |
| 2026-05-05 12:04 | -31.88849 | 116.06104 | 1651 ft | 150 kts | 235° |
| 2026-05-05 12:04 | -31.89390 | 116.05063 | 1382 ft | 148 kts | 236° |
| 2026-05-05 12:04 | -31.89901 | 116.04039 | 1142 ft | 143 kts | 237° |
| 2026-05-05 12:04 | -31.90413 | 116.03055 | 951 ft | 140 kts | 236° |
| 2026-05-05 12:05 | -31.90907 | 116.02088 | 790 ft | 136 kts | 237° |
| 2026-05-05 12:05 | -31.91396 | 116.01138 | 648 ft | 135 kts | 234° |
| 2026-05-05 12:05 | -31.91884 | 116.00207 | 486 ft | 133 kts | 237° |
| 2026-05-05 12:05 | -31.92359 | 115.99274 | 331 ft | 133 kts | 236° |
| 2026-05-05 12:06 | -31.92839 | 115.98357 | 175 ft | 131 kts | 235° |
| 2026-05-05 12:06 | -31.93309 | 115.97452 | 71 ft | 122 kts | 236° |
| 2026-05-05 12:06 | -31.93638 | 115.96822 | 67 ft | 49 kts | 239° |
| 2026-05-05 12:06 | -31.93749 | 115.96599 | 66 ft | 21 kts | 239° |
| 2026-05-05 12:07 | -31.93822 | 115.96460 | 67 ft | 19 kts | 239° |
| 2026-05-05 12:07 | -31.93892 | 115.96324 | 63 ft | 19 kts | 242° |